EDT,Max TemperatureF,Mean TemperatureF,Min TemperatureF,Max Dew PointF,MeanDew PointF,Min DewpointF,Max Humidity, Mean Humidity, Min Humidity, Max Sea Level PressureIn, Mean Sea Level PressureIn, Min Sea Level PressureIn, Max VisibilityMiles, Mean VisibilityMiles, Min VisibilityMiles, Max Wind SpeedMPH, Mean Wind SpeedMPH, Max Gust SpeedMPH,PrecipitationIn, CloudCover, Events, WindDirDegrees
2012-9-1,94,85,76,77,74,69,94,70,46,30.13,30.07,30.01,10,9,7,17,8,22,0.00,1,,53
2012-9-2,93,84,75,75,72,69,94,72,49,30.06,30.02,29.95,10,10,8,14,6,16,0.00,3,,59
2012-9-3,90,82,74,74,72,71,93,76,59,30.05,30.01,29.97,10,10,9,13,6,16,0.00,2,,4
2012-9-4,89,83,76,75,74,72,94,79,63,30.03,30.00,29.95,10,10,10,15,6,18,0.00,2,,181
2012-9-5,89,82,74,76,73,71,94,77,59,30.02,29.98,29.93,10,9,2,23,7,28,0.16,3,Rain,165
2012-9-6,89,81,73,76,73,70,93,78,63,30.03,29.99,29.96,10,10,9,16,7,22,T,2,,122
2012-9-7,88,82,75,75,74,71,94,79,63,30.01,29.97,29.92,10,10,10,13,5,15,0.00,1,,190
2012-9-8,89,83,77,75,75,72,94,79,63,29.99,29.94,29.91,10,10,6,16,6,20,T,2,Rain,209
2012-9-9,89,86,82,76,75,73,79,71,63,30.00,29.96,29.93,10,10,9,17,11,23,0.00,3,,244
2012-9-10,89,84,79,76,75,73,85,74,63,30.04,29.99,29.94,10,10,5,17,7,21,T,3,Rain,273
2012-9-11,92,84,75,76,74,72,94,75,56,30.09,30.03,29.99,10,9,2,22,7,28,0.19,3,Rain-Thunderstorm,48
2012-9-12,92,84,75,74,72,69,94,73,52,30.08,30.03,29.98,10,9,7,21,10,26,0.00,1,,52
2012-9-13,86,81,76,74,73,71,88,77,65,30.06,30.01,29.96,10,10,10,20,10,25,0.00,3,,66
2012-9-14,93,84,74,76,73,71,100,76,52,30.04,29.99,29.94,10,9,3,22,7,28,0.11,3,Rain-Thunderstorm,46
2012-9-15,91,83,74,77,74,73,100,80,59,30.04,30.01,29.98,10,10,6,15,7,18,0.09,5,Rain-Thunderstorm,76
2012-9-16,87,82,76,76,74,71,94,80,65,30.03,29.99,29.95,10,9,2,17,7,21,0.13,3,Rain-Thunderstorm,73
2012-9-17,88,82,75,78,75,72,97,80,63,30.01,29.97,29.92,10,8,1,18,6,25,1.26,4,Rain-Thunderstorm,127
2012-9-18,89,83,76,79,75,72,94,82,70,30.00,29.95,29.90,10,7,0,32,8,39,1.02,5,Fog-Rain-Thunderstorm,201
2012-9-19,88,82,76,75,73,69,100,78,55,30.05,29.99,29.94,10,10,9,9,3,12,0.00,1,,256
2012-9-20,90,83,76,75,72,67,94,76,58,30.02,29.99,29.93,10,10,5,22,5,28,0.07,2,Rain-Thunderstorm,48
2012-9-21,90,82,74,76,73,71,94,77,59,30.00,29.96,29.90,10,8,1,10,5,25,0.18,4,Rain-Thunderstorm,58
2012-9-22,85,79,73,75,73,72,100,85,70,30.04,29.98,29.94,10,9,5,9,5,,0.03,3,Rain,48
2012-9-23,90,82,74,74,72,70,100,80,59,30.06,30.03,29.99,10,10,10,9,5,,0.00,1,,44
2012-9-24,88,81,73,73,71,67,94,75,55,30.08,30.03,29.98,10,10,9,13,4,16,0.00,1,,35
2012-9-25,86,80,73,74,70,65,94,80,65,30.08,30.04,30.00,10,9,5,16,6,21,0.07,1,Rain,50
2012-9-26,89,82,74,75,73,70,94,77,59,30.09,30.06,30.01,10,9,7,10,6,13,0.00,1,,64
2012-9-27,92,83,74,77,72,66,100,75,49,30.10,30.05,29.99,10,10,8,21,4,28,0.00,2,Thunderstorm,39
2012-9-28,91,83,75,76,74,72,100,78,56,30.05,30.00,29.92,10,8,0,16,6,63,T,4,Fog-Rain-Thunderstorm,46
2012-9-29,88,81,74,74,73,71,94,78,61,29.97,29.92,29.85,10,10,8,13,5,15,0.00,1,,15
2012-9-30,90,83,75,76,73,69,94,75,55,29.90,29.84,29.79,10,10,10,16,4,21,0.03,2,,138